Rochester International Airport Rochester US
ICAO: KRST
IATA: RST
Category: Large
Scheduled Services: Yes

Elevation: 1317 ft
TransAlt. 18000 ft.

Airport Communications:
APP/DEP:119.2
ATIS:120.5
CTAF:118.3
GND:121.9
PRINCETON RDO:122.45
TWR:118.3
UNICOM:122.95

KRST Zoom In..

If you have problems with the map follow the link
https://www.worldairports.se/pages/airport.php?
ICAO=KRST

Runways:

(A) RW 02 length 7301 ft width 150 ft
---- / hdg 25

(B) RW 13 length 9033 ft width 150 ft
ILS 109.10 / hdg 131

(C) RW 20 length 7301 ft width 150 ft
---- / hdg 205

(D) RW 31 length 9033 ft width 150 ft
ILS 108.50 / hdg 311

Location; KRST
Day. 19 / Time. 15.07 Zulu
* Altimeter: 30.36
* Temperature: -17° c. -1.4°f.
* Wind from: 310° Speed 15 kn.
Dewpoint: -21° c.
Visibility: 4 Statute Miles.
Clouds: Broken 1500 ft.
Clouds: Overcast 2000 ft.
Conditions: Light Snow.

KRST 191507Z 31015KT 4SM -SN BKN015 OVC020 M17/M21 A3036 RMK AO2 P0000 T11721206 $


Wind From 310°
Speed 15 kn.

 
 
jpsmedia worldairports.se 2020   terms of use